createdAt,value
2018-08-10T00:00:33.586Z,18.54
2018-08-10T00:03:01.760Z,18.49
2018-08-10T00:05:29.931Z,18.43
2018-08-10T00:07:58.071Z,18.32
2018-08-10T00:10:26.160Z,18.37
2018-08-10T00:12:54.295Z,18.28
2018-08-10T00:15:22.558Z,18.23
2018-08-10T00:17:50.722Z,18.18
2018-08-10T00:20:18.908Z,18.13
2018-08-10T00:22:46.994Z,18.13
2018-08-10T00:25:16.999Z,18.07
2018-08-10T00:27:45.125Z,18.11
2018-08-10T00:30:15.104Z,18.08
2018-08-10T00:32:44.803Z,18.05
2018-08-10T00:35:13.020Z,18.03
2018-08-10T00:37:41.928Z,18.01
2018-08-10T00:40:20.283Z,18.01
2018-08-10T00:42:48.444Z,17.98
2018-08-10T00:45:20.950Z,17.98
2018-08-10T00:47:49.448Z,18.00
2018-08-10T00:50:18.138Z,18.05
2018-08-10T00:52:46.928Z,18.08
2018-08-10T00:55:16.138Z,18.10
2018-08-10T00:57:44.826Z,18.08
2018-08-10T01:00:21.324Z,18.05
2018-08-10T01:02:49.539Z,18.14
2018-08-10T01:05:17.654Z,18.08
2018-08-10T01:07:45.794Z,18.05
2018-08-10T01:10:15.969Z,17.97
2018-08-10T01:12:44.124Z,17.97
2018-08-10T01:15:13.911Z,17.92
2018-08-10T01:17:42.204Z,17.92
2018-08-10T01:20:12.880Z,17.97
2018-08-10T01:22:47.026Z,18.03
2018-08-10T01:25:15.134Z,18.03
2018-08-10T01:27:48.749Z,17.98
2018-08-10T01:30:16.843Z,17.99
2018-08-10T01:32:45.140Z,17.94
2018-08-10T01:35:13.336Z,17.95
2018-08-10T01:37:41.429Z,17.89
2018-08-10T01:40:09.579Z,17.98
2018-08-10T01:42:37.724Z,18.02
2018-08-10T01:45:06.699Z,17.98
2018-08-10T01:47:35.003Z,17.92
2018-08-10T01:50:03.123Z,17.93
2018-08-10T01:52:31.256Z,17.94
2018-08-10T01:54:59.375Z,18.06
2018-08-10T01:57:27.521Z,18.16
2018-08-10T01:59:55.651Z,18.28
2018-08-10T02:02:23.805Z,18.28
2018-08-10T02:04:51.924Z,18.35
2018-08-10T02:07:20.032Z,18.34
2018-08-10T02:09:48.177Z,18.24
2018-08-10T02:12:16.299Z,18.20
2018-08-10T02:14:44.445Z,18.21
2018-08-10T02:17:12.667Z,18.19
2018-08-10T02:19:40.786Z,18.24
2018-08-10T02:22:08.903Z,18.27
2018-08-10T02:24:37.098Z,18.34
2018-08-10T02:27:05.237Z,18.28
2018-08-10T02:29:33.355Z,18.32
2018-08-10T02:32:01.479Z,18.33
2018-08-10T02:34:29.608Z,18.37
2018-08-10T02:36:57.758Z,18.40
2018-08-10T02:39:25.936Z,18.36
2018-08-10T02:41:54.105Z,18.37
2018-08-10T02:44:22.214Z,18.42
2018-08-10T02:46:50.344Z,18.37
2018-08-10T02:49:18.464Z,18.29
2018-08-10T02:51:46.548Z,18.22
2018-08-10T02:54:14.656Z,18.18
2018-08-10T02:56:42.808Z,18.20
2018-08-10T02:59:10.852Z,18.17
2018-08-10T03:01:38.937Z,18.21
2018-08-10T03:04:07.064Z,18.19
2018-08-10T03:06:35.153Z,18.20
2018-08-10T03:09:03.288Z,18.24
2018-08-10T03:11:31.379Z,18.27
2018-08-10T03:13:59.871Z,18.26
2018-08-10T03:16:28.051Z,18.28
2018-08-10T03:18:56.259Z,18.30
2018-08-10T03:21:24.328Z,18.28
2018-08-10T03:23:52.452Z,18.24
2018-08-10T03:26:20.548Z,18.19
2018-08-10T03:28:48.701Z,18.23
2018-08-10T03:31:16.771Z,18.28
2018-08-10T03:33:44.882Z,18.26
2018-08-10T03:36:13.004Z,18.21
2018-08-10T03:38:41.127Z,18.20
2018-08-10T03:41:09.252Z,18.24
2018-08-10T03:43:37.391Z,18.18
2018-08-10T03:46:05.564Z,18.17
2018-08-10T03:48:33.641Z,18.17
2018-08-10T03:51:01.748Z,18.13
2018-08-10T03:53:29.864Z,18.05
2018-08-10T03:55:57.973Z,17.95
2018-08-10T03:58:26.139Z,17.92
2018-08-10T04:00:54.331Z,17.96
2018-08-10T04:03:22.463Z,17.94
2018-08-10T04:05:50.593Z,17.99
2018-08-10T04:08:18.698Z,18.01
2018-08-10T04:10:46.819Z,18.01
2018-08-10T04:13:15.341Z,18.00
2018-08-10T04:15:43.459Z,17.94
2018-08-10T04:18:12.170Z,17.94
2018-08-10T04:20:40.289Z,17.96
2018-08-10T04:23:09.478Z,17.97
2018-08-10T04:25:37.667Z,17.98
2018-08-10T04:28:05.993Z,18.00
2018-08-10T04:30:34.122Z,17.96
2018-08-10T04:33:02.276Z,17.93
2018-08-10T04:35:30.485Z,17.94
2018-08-10T04:37:58.620Z,17.97
2018-08-10T04:40:26.742Z,17.91
2018-08-10T04:42:54.885Z,17.97
2018-08-10T04:45:23.027Z,17.97
2018-08-10T04:47:51.175Z,18.01
2018-08-10T04:50:19.497Z,18.04
2018-08-10T04:52:47.688Z,18.03
2018-08-10T04:55:15.848Z,18.02
2018-08-10T04:57:44.001Z,18.07
2018-08-10T05:00:13.953Z,18.06
2018-08-10T05:02:42.089Z,18.02
2018-08-10T05:05:11.074Z,17.95
2018-08-10T05:07:40.165Z,17.95
2018-08-10T05:10:08.489Z,17.87
2018-08-10T05:12:36.989Z,17.81
2018-08-10T05:15:05.875Z,17.81
2018-08-10T05:17:34.012Z,17.73
2018-08-10T05:20:02.198Z,17.75
2018-08-10T05:22:30.311Z,17.81
2018-08-10T05:24:59.247Z,17.89
2018-08-10T05:27:27.369Z,17.88
2018-08-10T05:29:55.568Z,17.93
2018-08-10T05:32:23.971Z,18.00
2018-08-10T05:34:52.227Z,18.03
2018-08-10T05:37:20.534Z,18.07
2018-08-10T05:39:48.615Z,18.07
2018-08-10T05:42:16.896Z,17.98
2018-08-10T05:44:45.092Z,17.94
2018-08-10T05:47:13.976Z,17.92
2018-08-10T05:49:42.108Z,18.13
2018-08-10T05:52:10.230Z,18.19
2018-08-10T05:54:38.486Z,18.32
2018-08-10T05:57:06.746Z,18.23
2018-08-10T05:59:34.950Z,18.10
2018-08-10T06:02:03.124Z,17.93
2018-08-10T06:04:31.487Z,17.89
2018-08-10T06:07:00.466Z,17.77
2018-08-10T06:09:28.613Z,17.74
2018-08-10T06:11:56.807Z,17.75
2018-08-10T06:14:24.972Z,17.74
2018-08-10T06:16:53.133Z,17.99
2018-08-10T06:19:21.267Z,19.08
2018-08-10T06:21:49.441Z,19.88
2018-08-10T06:24:17.566Z,19.80
2018-08-10T06:26:45.664Z,19.38
2018-08-10T06:29:13.792Z,19.44
2018-08-10T06:31:41.952Z,20.26
2018-08-10T06:34:10.242Z,20.60
2018-08-10T06:36:38.338Z,20.16
2018-08-10T06:53:49.538Z,18.21
2018-08-10T06:56:17.691Z,19.09
2018-08-10T06:58:45.835Z,19.24
2018-08-10T07:01:14.013Z,19.37
2018-08-10T07:03:42.134Z,19.10
2018-08-10T07:06:10.262Z,18.90
2018-08-10T07:08:38.448Z,18.80
2018-08-10T07:11:06.579Z,18.73
2018-08-10T07:13:34.768Z,18.86
2018-08-10T07:16:02.937Z,18.87
2018-08-10T07:18:31.113Z,18.76
2018-08-10T07:20:59.206Z,19.39
2018-08-10T07:23:27.347Z,19.94
2018-08-10T07:25:55.543Z,20.26
2018-08-10T07:28:23.683Z,20.16
2018-08-10T07:30:51.774Z,19.48
2018-08-10T07:33:19.875Z,19.79
2018-08-10T07:35:48.017Z,20.36
2018-08-10T07:38:16.183Z,20.64
2018-08-10T07:40:44.366Z,21.61
2018-08-10T07:43:13.352Z,21.65
2018-08-10T07:45:41.520Z,21.77
2018-08-10T07:48:09.610Z,21.63
2018-08-10T07:50:37.944Z,22.11
2018-08-10T07:53:06.404Z,22.50
2018-08-10T07:55:34.540Z,21.82
2018-08-10T07:58:02.686Z,20.98
2018-08-10T08:00:30.789Z,20.48
2018-08-10T08:02:58.912Z,19.98
2018-08-10T08:05:27.038Z,20.35
2018-08-10T08:07:55.180Z,21.63
2018-08-10T08:10:24.515Z,22.77
2018-08-10T08:12:52.601Z,23.19
2018-08-10T08:15:20.732Z,23.15
2018-08-10T08:17:48.892Z,22.49
2018-08-10T08:20:19.101Z,22.12
2018-08-10T08:25:41.590Z,21.61
2018-08-10T08:28:09.722Z,20.50
2018-08-10T08:30:37.852Z,20.19
2018-08-10T08:33:05.986Z,20.23
2018-08-10T08:35:34.091Z,20.29
2018-08-10T08:38:17.461Z,20.47
2018-08-10T08:40:49.212Z,20.87
2018-08-10T08:44:34.611Z,21.40
2018-08-10T08:47:04.156Z,20.75
2018-08-10T08:49:32.315Z,20.14
2018-08-10T08:52:00.432Z,19.92
2018-08-10T08:55:06.641Z,19.88
2018-08-10T08:57:35.620Z,20.14
2018-08-10T09:00:08.751Z,20.45
2018-08-10T09:02:36.883Z,20.74
2018-08-10T09:05:09.176Z,20.75
2018-08-10T09:07:37.811Z,20.41
2018-08-10T09:10:10.898Z,20.14
2018-08-10T09:12:38.979Z,19.93
2018-08-10T09:15:09.106Z,19.77
2018-08-10T09:17:37.353Z,19.73
2018-08-10T09:20:07.439Z,20.05
2018-08-10T09:22:35.583Z,20.16
2018-08-10T09:25:04.737Z,20.43
2018-08-10T09:27:32.876Z,21.28
2018-08-10T09:30:00.984Z,21.79
2018-08-10T09:32:29.128Z,22.09
2018-08-10T09:34:57.267Z,22.14
2018-08-10T09:37:25.432Z,22.03
2018-08-10T09:39:54.426Z,21.73
2018-08-10T09:42:22.538Z,21.13
2018-08-10T09:44:50.655Z,20.53
2018-08-10T09:47:18.773Z,19.72
2018-08-10T09:49:48.038Z,19.36
2018-08-10T09:52:16.242Z,19.23
2018-08-10T09:55:24.538Z,19.18
2018-08-10T09:57:53.993Z,19.26
2018-08-10T10:00:27.500Z,19.43
2018-08-10T10:03:00.866Z,19.45
2018-08-10T10:05:29.046Z,19.38
2018-08-10T10:07:57.147Z,19.42
2018-08-10T10:10:25.374Z,19.64
2018-08-10T10:12:53.859Z,20.34
2018-08-10T10:15:22.439Z,21.19
2018-08-10T10:17:50.635Z,21.75
2018-08-10T10:20:18.760Z,21.90
2018-08-10T10:22:47.703Z,22.08
2018-08-10T10:25:15.812Z,22.51
2018-08-10T10:27:43.912Z,22.51
2018-08-10T10:30:12.010Z,22.44
2018-08-10T10:32:40.170Z,22.19
2018-08-10T10:35:08.242Z,22.09
2018-08-10T10:37:36.340Z,22.09
2018-08-10T10:40:05.362Z,21.75
2018-08-10T10:42:33.483Z,21.20
2018-08-10T10:45:01.638Z,21.14
2018-08-10T10:47:29.837Z,20.93
2018-08-10T10:49:57.876Z,20.65
2018-08-10T10:52:25.966Z,20.63
2018-08-10T10:54:54.120Z,21.03
2018-08-10T10:57:22.401Z,21.31
2018-08-10T10:59:50.545Z,21.30
2018-08-10T11:02:18.681Z,21.20
2018-08-10T11:04:46.819Z,21.42
2018-08-10T11:07:14.966Z,21.28
2018-08-10T11:09:43.116Z,20.97
2018-08-10T11:12:11.267Z,20.99
2018-08-10T11:14:39.420Z,20.82
2018-08-10T11:17:07.592Z,20.68
2018-08-10T11:19:35.683Z,20.84
2018-08-10T11:22:03.841Z,21.31
2018-08-10T11:24:31.996Z,21.70
2018-08-10T11:27:00.111Z,21.74
2018-08-10T11:29:28.230Z,21.86
2018-08-10T11:31:56.392Z,21.84
2018-08-10T11:34:24.507Z,22.17
2018-08-10T11:36:52.654Z,22.29
2018-08-10T11:39:20.740Z,21.99
2018-08-10T11:41:48.878Z,21.96
2018-08-10T11:44:16.994Z,21.93
2018-08-10T11:46:45.112Z,22.10
2018-08-10T11:49:13.309Z,22.08
2018-08-10T11:51:41.436Z,21.92
2018-08-10T11:54:09.528Z,21.95
2018-08-10T11:56:37.718Z,22.16
2018-08-10T11:59:05.873Z,22.33
2018-08-10T12:01:34.009Z,22.36
2018-08-10T12:04:02.160Z,22.36
2018-08-10T12:06:30.287Z,22.27
2018-08-10T12:08:58.377Z,22.27
2018-08-10T12:11:26.485Z,22.40
2018-08-10T12:13:54.607Z,22.48
2018-08-10T12:16:22.715Z,22.30
2018-08-10T12:18:50.788Z,22.44
2018-08-10T12:21:21.686Z,22.89
2018-08-10T12:23:49.851Z,23.21
2018-08-10T12:26:18.001Z,23.24
2018-08-10T12:28:46.117Z,23.30
2018-08-10T12:31:14.227Z,23.34
2018-08-10T12:33:42.362Z,23.34
2018-08-10T12:36:10.545Z,22.92
2018-08-10T12:38:39.309Z,22.48
2018-08-10T12:41:07.423Z,22.73
2018-08-10T12:43:35.578Z,22.75
2018-08-10T12:46:03.725Z,22.56
2018-08-10T12:48:31.832Z,22.90
2018-08-10T12:50:59.964Z,23.08
2018-08-10T12:53:28.173Z,22.99
2018-08-10T12:55:56.344Z,22.95
2018-08-10T12:58:24.499Z,22.70
2018-08-10T13:00:52.615Z,22.36
2018-08-10T13:03:20.749Z,22.48
2018-08-10T13:05:48.896Z,22.94
2018-08-10T13:08:17.058Z,23.25
2018-08-10T13:10:45.240Z,23.47
2018-08-10T13:13:13.352Z,23.16
2018-08-10T13:15:41.516Z,23.42
2018-08-10T13:18:09.902Z,23.56
2018-08-10T13:20:38.057Z,23.67
2018-08-10T13:23:06.205Z,23.68
2018-08-10T13:25:34.368Z,23.87
2018-08-10T13:28:02.511Z,24.13
2018-08-10T13:30:30.643Z,23.81
2018-08-10T13:32:58.795Z,23.22
2018-08-10T13:35:26.968Z,23.11
2018-08-10T13:37:55.310Z,22.82
2018-08-10T13:40:23.437Z,22.83
2018-08-10T13:42:51.520Z,22.94
2018-08-10T13:45:19.671Z,23.08
2018-08-10T13:47:47.823Z,23.39
2018-08-10T13:50:16.726Z,23.55
2018-08-10T13:52:45.380Z,23.70
2018-08-10T13:55:23.017Z,23.78
2018-08-10T13:57:51.231Z,23.55
2018-08-10T14:00:23.415Z,23.38
2018-08-10T14:02:53.156Z,23.23
2018-08-10T14:05:21.906Z,23.25
2018-08-10T14:07:50.361Z,23.30
2018-08-10T14:10:18.522Z,23.21
2018-08-10T14:12:46.808Z,22.94
2018-08-10T14:15:14.998Z,22.70
2018-08-10T14:17:43.321Z,22.62
2018-08-10T14:20:14.095Z,22.61
2018-08-10T14:22:42.277Z,22.44
2018-08-10T14:25:11.107Z,22.26
2018-08-10T14:27:39.346Z,22.11
2018-08-10T14:30:10.135Z,21.98
2018-08-10T14:32:38.563Z,22.05
2018-08-10T14:35:06.961Z,21.98
2018-08-10T14:37:36.072Z,21.97
2018-08-10T14:40:04.850Z,21.90
2018-08-10T14:42:33.050Z,21.71
2018-08-10T14:45:01.269Z,21.45
2018-08-10T14:47:29.405Z,21.08
2018-08-10T14:49:57.535Z,20.50
2018-08-10T14:52:25.627Z,20.14
2018-08-10T14:54:53.776Z,19.90
2018-08-10T14:57:21.884Z,19.75
2018-08-10T14:59:50.077Z,19.69
2018-08-10T15:02:18.218Z,19.85
2018-08-10T15:04:46.592Z,20.06
2018-08-10T15:07:15.828Z,20.29
2018-08-10T15:09:44.049Z,20.54
2018-08-10T15:12:12.385Z,20.80
2018-08-10T15:15:17.540Z,21.29
2018-08-10T15:17:46.128Z,21.86
2018-08-10T15:20:18.031Z,22.14
2018-08-10T15:22:46.409Z,22.15
2018-08-10T15:25:14.534Z,21.93
2018-08-10T15:27:43.339Z,21.79
2018-08-10T15:30:13.779Z,21.78
2018-08-10T15:32:42.253Z,21.80
2018-08-10T15:35:11.113Z,21.80
2018-08-10T15:37:39.219Z,21.82
2018-08-10T15:40:10.423Z,21.80
2018-08-10T15:42:38.768Z,21.95
2018-08-10T15:45:09.520Z,22.05
2018-08-10T15:47:37.668Z,21.97
2018-08-10T15:50:06.314Z,22.19
2018-08-10T15:52:34.428Z,22.47
2018-08-10T15:55:02.535Z,22.60
2018-08-10T15:57:30.603Z,22.38
2018-08-10T15:59:59.388Z,21.72
2018-08-10T16:02:27.569Z,21.59
2018-08-10T16:04:55.751Z,21.32
2018-08-10T16:07:30.663Z,21.32
2018-08-10T16:09:59.695Z,20.97
2018-08-10T16:12:29.230Z,20.94
2018-08-10T16:14:57.459Z,20.69
2018-08-10T16:17:25.729Z,20.51
2018-08-10T16:19:53.916Z,20.31
2018-08-10T16:22:22.062Z,20.23
2018-08-10T16:24:50.155Z,20.07
2018-08-10T16:27:18.266Z,19.90
2018-08-10T16:29:46.347Z,19.87
2018-08-10T16:32:14.451Z,19.92
2018-08-10T16:34:42.536Z,19.81
2018-08-10T16:37:10.615Z,20.00
2018-08-10T16:39:38.767Z,20.09
2018-08-10T16:42:06.849Z,19.99
2018-08-10T16:44:35.020Z,19.98
2018-08-10T16:47:03.044Z,20.06
2018-08-10T16:49:31.119Z,20.10
2018-08-10T16:51:59.247Z,20.15
2018-08-10T16:54:27.384Z,20.03
2018-08-10T16:56:55.545Z,19.84
2018-08-10T16:59:23.677Z,19.83
2018-08-10T17:01:51.773Z,19.74
2018-08-10T17:04:19.883Z,19.62
2018-08-10T17:06:47.976Z,19.50
2018-08-10T17:09:16.082Z,19.42
2018-08-10T17:11:44.253Z,19.30
2018-08-10T17:14:12.413Z,19.23
2018-08-10T17:16:40.505Z,19.26
2018-08-10T17:19:08.661Z,19.19
2018-08-10T17:21:36.760Z,19.25
2018-08-10T17:24:04.858Z,19.40
2018-08-10T17:26:33.011Z,19.40
2018-08-10T17:29:01.112Z,19.35
2018-08-10T17:31:29.276Z,19.45
2018-08-10T17:33:57.885Z,19.48
2018-08-10T17:36:26.158Z,19.48
2018-08-10T17:38:54.276Z,19.27
2018-08-10T17:41:22.402Z,19.13
2018-08-10T17:43:50.513Z,19.36
2018-08-10T17:46:19.303Z,19.47
2018-08-10T17:48:47.430Z,19.41
2018-08-10T17:51:15.499Z,19.38
2018-08-10T17:53:43.679Z,19.47
2018-08-10T17:56:11.780Z,19.41
2018-08-10T17:58:39.945Z,19.24
2018-08-10T18:01:07.991Z,19.10
2018-08-10T18:03:36.113Z,19.04
2018-08-10T18:06:04.351Z,18.93
2018-08-10T18:08:32.437Z,18.82
2018-08-10T18:11:00.524Z,18.85
2018-08-10T18:13:28.615Z,18.77
2018-08-10T18:15:56.678Z,18.68
2018-08-10T18:18:24.765Z,18.62
2018-08-10T18:20:52.916Z,18.68
2018-08-10T18:23:21.122Z,18.60
2018-08-10T18:25:49.228Z,18.66
2018-08-10T18:28:17.361Z,18.68
2018-08-10T18:30:45.494Z,18.59
2018-08-10T18:33:13.600Z,18.56
2018-08-10T18:35:41.704Z,18.42
2018-08-10T18:38:09.818Z,18.16
2018-08-10T18:40:37.936Z,18.01
2018-08-10T18:43:06.202Z,17.87
2018-08-10T18:45:34.932Z,17.69
2018-08-10T18:48:03.047Z,17.60
2018-08-10T18:50:31.215Z,17.47
2018-08-10T18:52:59.247Z,17.52
2018-08-10T18:55:27.346Z,17.61
2018-08-10T18:57:55.450Z,17.37
2018-08-10T19:00:25.235Z,17.18
2018-08-10T19:02:53.591Z,17.39
2018-08-10T19:05:21.725Z,17.53
2018-08-10T19:07:50.114Z,17.41
2018-08-10T19:10:22.082Z,17.33
2018-08-10T19:12:50.183Z,17.30
2018-08-10T19:15:18.344Z,17.27
2018-08-10T19:17:46.487Z,17.22
2018-08-10T19:20:15.131Z,17.32
2018-08-10T19:22:43.255Z,17.28
2018-08-10T19:25:12.445Z,17.28
2018-08-10T19:27:40.535Z,17.29
2018-08-10T19:30:12.650Z,17.12
2018-08-10T19:32:40.833Z,16.79
2018-08-10T19:35:09.711Z,16.72
2018-08-10T19:37:38.318Z,16.74
2018-08-10T19:40:08.110Z,16.81
2018-08-10T19:42:36.385Z,16.74
2018-08-10T19:45:05.863Z,16.67
2018-08-10T19:47:34.098Z,16.65
2018-08-10T19:50:02.203Z,16.24
2018-08-10T19:52:30.480Z,16.00
2018-08-10T19:54:58.656Z,16.09
2018-08-10T19:57:26.749Z,16.21
2018-08-10T19:59:54.882Z,16.10
2018-08-10T20:02:22.974Z,16.04
2018-08-10T20:04:51.120Z,15.65
2018-08-10T20:07:19.226Z,15.57
2018-08-10T20:09:47.320Z,15.42
2018-08-10T20:12:15.396Z,15.53
2018-08-10T20:14:44.072Z,15.57
2018-08-10T20:17:12.648Z,15.52
2018-08-10T20:19:40.736Z,15.58
2018-08-10T20:22:13.600Z,15.57
2018-08-10T20:24:41.741Z,15.49
2018-08-10T20:27:10.609Z,15.58
2018-08-10T20:29:38.862Z,15.61
2018-08-10T20:32:07.037Z,15.58
2018-08-10T20:34:35.136Z,15.57
2018-08-10T20:37:03.242Z,15.53
2018-08-10T20:39:31.365Z,15.50
2018-08-10T20:41:59.464Z,15.53
2018-08-10T20:44:27.535Z,15.56
2018-08-10T20:46:55.612Z,15.53
2018-08-10T20:49:23.703Z,15.52
2018-08-10T20:51:51.840Z,15.50
2018-08-10T20:54:19.992Z,15.46
2018-08-10T20:56:48.117Z,15.33
2018-08-10T20:59:16.718Z,15.29
2018-08-10T21:01:45.123Z,15.13
2018-08-10T21:04:13.247Z,15.08
2018-08-10T21:06:41.357Z,15.05
2018-08-10T21:09:11.696Z,15.00
2018-08-10T21:11:40.185Z,15.06
2018-08-10T21:14:08.306Z,14.92
2018-08-10T21:16:36.518Z,14.93
2018-08-10T21:19:04.619Z,15.07
2018-08-10T21:21:32.704Z,14.99
2018-08-10T21:24:00.808Z,14.96
2018-08-10T21:26:28.964Z,14.90
2018-08-10T21:28:57.009Z,14.91
2018-08-10T21:31:25.108Z,14.90
2018-08-10T21:33:53.238Z,14.67
2018-08-10T21:36:21.347Z,14.57
2018-08-10T21:38:49.485Z,14.56
2018-08-10T21:41:17.571Z,14.47
2018-08-10T21:43:45.665Z,14.53
2018-08-10T21:46:13.768Z,14.69
2018-08-10T21:48:41.860Z,14.74
2018-08-10T21:51:09.972Z,14.68
2018-08-10T21:53:38.154Z,14.58
2018-08-10T21:56:06.204Z,14.63
2018-08-10T21:58:34.319Z,14.46
2018-08-10T22:01:03.547Z,14.68
2018-08-10T22:03:32.394Z,14.71
2018-08-10T22:06:00.516Z,14.76
2018-08-10T22:08:28.644Z,14.72
2018-08-10T22:10:56.748Z,14.76
2018-08-10T22:13:30.309Z,14.79
2018-08-10T22:16:03.722Z,14.80
2018-08-10T22:18:37.482Z,14.88
2018-08-10T22:21:05.549Z,14.82
2018-08-10T22:23:33.645Z,14.88
2018-08-10T22:26:01.786Z,14.90
2018-08-10T22:28:29.919Z,14.90
2018-08-10T22:30:58.024Z,14.91
2018-08-10T22:33:26.130Z,14.97
2018-08-10T22:35:54.281Z,15.01
2018-08-10T22:38:22.359Z,15.08
2018-08-10T22:40:50.494Z,15.12
2018-08-10T22:43:18.607Z,15.13
2018-08-10T22:45:46.727Z,15.16
2018-08-10T22:48:14.838Z,15.11
2018-08-10T22:50:42.903Z,15.08
2018-08-10T22:53:11.194Z,15.02
2018-08-10T22:55:39.291Z,15.02
2018-08-10T22:58:07.413Z,15.01
2018-08-10T23:00:35.572Z,14.98
2018-08-10T23:03:03.731Z,14.94
2018-08-10T23:05:31.783Z,15.00
2018-08-10T23:07:59.963Z,15.03
2018-08-10T23:10:28.134Z,14.95
2018-08-10T23:12:56.269Z,14.96
2018-08-10T23:15:24.376Z,14.92
2018-08-10T23:17:53.039Z,14.88
2018-08-10T23:20:21.145Z,14.90
2018-08-10T23:22:49.280Z,14.91
2018-08-10T23:25:17.392Z,14.95
2018-08-10T23:27:45.473Z,14.87
2018-08-10T23:30:14.680Z,14.82
2018-08-10T23:32:43.141Z,14.84
2018-08-10T23:35:11.275Z,14.82
2018-08-10T23:37:39.412Z,14.84
2018-08-10T23:40:10.068Z,14.80
2018-08-10T23:42:38.471Z,14.84
2018-08-10T23:45:07.961Z,14.83
2018-08-10T23:47:36.036Z,14.79
2018-08-10T23:50:05.438Z,14.83
2018-08-10T23:52:33.539Z,14.86
2018-08-10T23:55:01.564Z,14.87
2018-08-10T23:57:29.694Z,14.84
2018-08-10T23:59:57.782Z,14.85
